createdAt,value
2022-08-19T00:01:40.156Z,6.47
2022-08-19T00:04:11.181Z,6.20
2022-08-19T00:06:39.569Z,6.10
2022-08-19T00:09:08.717Z,6.03
2022-08-19T00:11:38.141Z,5.83
2022-08-19T00:14:07.090Z,5.83
2022-08-19T00:16:35.369Z,5.77
2022-08-19T00:19:03.476Z,5.47
2022-08-19T00:21:33.010Z,6.53
2022-08-19T00:24:01.596Z,6.03
2022-08-19T00:26:29.782Z,5.40
2022-08-19T00:28:57.917Z,5.80
2022-08-19T00:31:26.520Z,5.67
2022-08-19T00:33:54.634Z,6.00
2022-08-19T00:36:22.827Z,6.17
2022-08-19T00:38:53.975Z,6.20
2022-08-19T00:41:22.798Z,6.07
2022-08-19T00:44:00.298Z,5.67
2022-08-19T00:46:28.434Z,6.70
2022-08-19T00:48:56.630Z,5.63
2022-08-19T00:51:29.758Z,5.23
2022-08-19T00:53:59.662Z,5.43
2022-08-19T00:56:28.467Z,5.77
2022-08-19T00:58:56.874Z,5.70
2022-08-19T01:01:25.159Z,5.20
2022-08-19T01:03:56.993Z,6.00
2022-08-19T01:06:26.610Z,5.47
2022-08-19T01:08:55.400Z,5.60
2022-08-19T01:11:24.958Z,5.50
2022-08-19T01:13:53.063Z,5.50
2022-08-19T01:16:22.684Z,6.30
2022-08-19T01:18:51.211Z,5.60
2022-08-19T01:21:20.531Z,6.20
2022-08-19T01:23:50.076Z,6.20
2022-08-19T01:26:19.209Z,6.00
2022-08-19T01:28:48.256Z,6.00
2022-08-19T01:31:26.872Z,5.77
2022-08-19T01:33:57.650Z,6.17
2022-08-19T01:36:29.694Z,5.30
2022-08-19T01:38:59.190Z,5.60
2022-08-19T01:41:27.541Z,5.97
2022-08-19T01:44:17.015Z,5.33
2022-08-19T01:46:44.582Z,6.33
2022-08-19T01:49:12.656Z,5.70
2022-08-19T01:51:41.265Z,6.13
2022-08-19T01:54:10.897Z,5.67
2022-08-19T01:56:39.661Z,5.97
2022-08-19T01:59:10.728Z,5.80
2022-08-19T02:01:38.886Z,5.93
2022-08-19T02:04:07.178Z,6.37
2022-08-19T02:06:35.322Z,5.83
2022-08-19T02:09:09.101Z,6.67
2022-08-19T02:11:39.183Z,5.80
2022-08-19T02:14:10.332Z,6.57
2022-08-19T02:16:39.399Z,7.37
2022-08-19T02:19:07.572Z,6.77
2022-08-19T02:21:35.698Z,5.70
2022-08-19T02:24:03.981Z,5.90
2022-08-19T02:26:39.508Z,5.97
2022-08-19T02:29:09.224Z,6.10
2022-08-19T02:31:37.351Z,6.20
2022-08-19T02:34:05.418Z,6.77
2022-08-19T02:36:33.621Z,6.33
2022-08-19T02:39:00.700Z,6.33
2022-08-19T02:41:30.015Z,7.17
2022-08-19T02:44:18.366Z,6.10
2022-08-19T02:46:52.835Z,6.40
2022-08-19T02:49:21.211Z,6.53
2022-08-19T02:51:49.409Z,6.20
2022-08-19T02:54:17.511Z,6.17
2022-08-19T02:56:45.759Z,6.03
2022-08-19T02:59:13.861Z,6.23
2022-08-19T03:01:42.671Z,7.17
2022-08-19T03:04:13.824Z,7.23
2022-08-19T03:06:43.101Z,6.60
2022-08-19T03:09:11.257Z,7.60
2022-08-19T03:11:39.474Z,6.70
2022-08-19T03:14:08.198Z,6.40
2022-08-19T03:16:42.155Z,6.90
2022-08-19T03:19:10.353Z,6.67
2022-08-19T03:21:39.849Z,6.87
2022-08-19T03:24:09.190Z,6.60
2022-08-19T03:26:40.213Z,7.07
2022-08-19T03:29:12.001Z,7.40
2022-08-19T03:31:52.025Z,7.53
2022-08-19T03:34:22.567Z,7.33
2022-08-19T03:36:52.066Z,6.97
2022-08-19T03:39:20.369Z,7.20
2022-08-19T03:41:50.065Z,7.00
2022-08-19T03:44:38.865Z,7.00
2022-08-19T03:47:07.468Z,7.00
2022-08-19T03:49:36.208Z,6.80
2022-08-19T03:52:08.615Z,6.73
2022-08-19T03:54:36.803Z,7.33
2022-08-19T03:57:05.342Z,7.00
2022-08-19T03:59:34.532Z,7.67
2022-08-19T04:02:03.973Z,7.43
2022-08-19T04:04:32.277Z,8.07
2022-08-19T04:07:00.375Z,7.17
2022-08-19T04:09:29.862Z,8.00
2022-08-19T04:11:58.697Z,7.37
2022-08-19T04:14:29.437Z,7.40
2022-08-19T04:16:57.607Z,6.73
2022-08-19T04:19:28.771Z,7.57
2022-08-19T04:21:57.023Z,7.57
2022-08-19T04:24:25.139Z,7.37
2022-08-19T04:26:54.619Z,7.17
2022-08-19T04:29:26.071Z,8.03
2022-08-19T04:31:54.947Z,8.13
2022-08-19T04:34:24.390Z,7.20
2022-08-19T04:36:53.084Z,7.50
2022-08-19T04:39:22.263Z,7.23
2022-08-19T04:42:07.648Z,8.10
2022-08-19T04:44:38.935Z,7.03
2022-08-19T04:47:14.412Z,7.43
2022-08-19T04:49:42.825Z,7.53
2022-08-19T04:52:14.114Z,7.43
2022-08-19T04:54:42.205Z,7.90
2022-08-19T04:57:11.027Z,7.40
2022-08-19T04:59:40.965Z,8.27
2022-08-19T05:02:09.520Z,8.23
2022-08-19T05:04:40.224Z,8.23
2022-08-19T05:07:08.687Z,7.20
2022-08-19T05:09:57.841Z,8.30
2022-08-19T05:12:29.126Z,8.03
2022-08-19T05:14:59.042Z,9.23
2022-08-19T05:17:28.960Z,7.73
2022-08-19T05:20:16.052Z,7.80
2022-08-19T05:22:44.624Z,8.20
2022-08-19T05:25:14.549Z,7.40
2022-08-19T05:27:42.630Z,7.70
2022-08-19T05:30:12.944Z,7.30
2022-08-19T05:32:41.147Z,8.53
2022-08-19T05:35:10.480Z,8.17
2022-08-19T05:37:41.474Z,7.57
2022-08-19T05:40:10.952Z,8.03
2022-08-19T05:42:39.191Z,7.90
2022-08-19T05:45:08.284Z,9.80
2022-08-19T05:47:42.270Z,8.90
2022-08-19T05:50:10.833Z,8.53
2022-08-19T05:52:45.878Z,7.93
2022-08-19T05:55:21.268Z,8.20
2022-08-19T05:57:49.387Z,8.00
2022-08-19T06:00:20.422Z,9.30
2022-08-19T06:02:55.665Z,8.77
2022-08-19T06:05:23.957Z,8.83
2022-08-19T06:07:55.440Z,8.43
2022-08-19T06:10:23.765Z,9.10
2022-08-19T06:12:51.913Z,8.80
2022-08-19T06:15:20.062Z,7.90
2022-08-19T06:17:48.173Z,7.57
2022-08-19T06:20:34.374Z,7.90
2022-08-19T06:23:07.076Z,8.73
2022-08-19T06:25:35.200Z,9.23
2022-08-19T06:28:19.169Z,8.27
2022-08-19T06:30:47.499Z,8.03
2022-08-19T06:33:15.578Z,7.00
2022-08-19T06:38:18.072Z,8.20
2022-08-19T06:40:46.175Z,9.90
2022-08-19T06:43:16.924Z,7.60
2022-08-19T06:45:49.469Z,8.57
2022-08-19T06:48:18.293Z,7.90
2022-08-19T06:50:48.520Z,8.37
2022-08-19T06:53:18.795Z,7.80
2022-08-19T06:55:46.921Z,8.47
2022-08-19T06:58:15.218Z,7.87
2022-08-19T07:00:43.335Z,8.47
2022-08-19T07:03:13.292Z,7.63
2022-08-19T07:05:45.330Z,7.77
2022-08-19T07:08:15.546Z,8.00
2022-08-19T07:10:46.014Z,7.47
2022-08-19T07:13:14.343Z,7.57
2022-08-19T07:15:42.476Z,8.03
2022-08-19T07:18:11.690Z,6.93
2022-08-19T07:20:40.365Z,7.60
2022-08-19T07:23:26.968Z,7.40
2022-08-19T07:25:56.781Z,7.57
2022-08-19T07:28:25.140Z,8.07
2022-08-19T07:30:55.879Z,10.80
2022-08-19T07:33:23.952Z,6.97
2022-08-19T07:35:56.445Z,7.97
2022-08-19T07:38:24.543Z,6.80
2022-08-19T07:40:52.671Z,7.67
2022-08-19T07:43:24.072Z,7.53
2022-08-19T07:45:59.559Z,7.60
2022-08-19T07:48:27.871Z,7.60
2022-08-19T07:50:56.412Z,7.60
2022-08-19T07:53:24.739Z,7.67
2022-08-19T07:55:53.523Z,6.60
2022-08-19T07:58:23.719Z,6.73
2022-08-19T08:00:52.391Z,7.50
2022-08-19T08:03:21.908Z,7.23
2022-08-19T08:06:07.687Z,7.17
2022-08-19T08:08:53.271Z,6.90
2022-08-19T08:11:22.202Z,7.37
2022-08-19T08:14:00.431Z,7.87
2022-08-19T08:16:31.056Z,8.80
2022-08-19T08:18:59.409Z,7.20
2022-08-19T08:21:27.538Z,6.60
2022-08-19T08:23:56.752Z,7.23
2022-08-19T08:26:26.064Z,6.93
2022-08-19T08:28:55.655Z,7.53
2022-08-19T08:31:31.284Z,7.27
2022-08-19T08:33:59.423Z,7.23
2022-08-19T08:36:28.400Z,6.13
2022-08-19T08:41:29.345Z,6.50
2022-08-19T08:44:00.063Z,6.73
2022-08-19T08:46:32.601Z,6.43
2022-08-19T08:49:04.781Z,6.50
2022-08-19T08:51:35.953Z,6.30
2022-08-19T08:54:04.923Z,6.93
2022-08-19T08:56:33.231Z,6.70
2022-08-19T08:59:04.903Z,6.40
2022-08-19T09:01:33.018Z,6.80
2022-08-19T09:04:02.702Z,7.27
2022-08-19T09:06:36.002Z,6.40
2022-08-19T09:09:12.218Z,8.80
2022-08-19T09:11:50.271Z,6.80
2022-08-19T09:14:49.261Z,6.20
2022-08-19T09:17:14.273Z,6.63
2022-08-19T09:19:51.061Z,6.23
2022-08-19T09:22:25.630Z,6.17
2022-08-19T09:24:55.453Z,6.33
2022-08-19T09:27:41.929Z,8.97
2022-08-19T09:30:14.396Z,8.00
2022-08-19T09:32:44.006Z,6.10
2022-08-19T09:35:12.390Z,6.33
2022-08-19T09:37:40.606Z,6.83
2022-08-19T09:40:15.344Z,6.20
2022-08-19T09:42:49.994Z,6.83
2022-08-19T09:45:22.960Z,6.50
2022-08-19T09:47:52.211Z,6.53
2022-08-19T09:50:22.732Z,5.93
2022-08-19T09:52:55.145Z,6.43
2022-08-19T09:55:31.466Z,6.00
2022-08-19T09:58:02.467Z,6.90
2022-08-19T10:00:32.470Z,6.00
2022-08-19T10:03:01.001Z,6.30
2022-08-19T10:05:48.653Z,6.27
2022-08-19T10:08:17.692Z,6.23
2022-08-19T10:10:46.463Z,7.03
2022-08-19T10:13:16.321Z,6.33
2022-08-19T10:15:48.003Z,5.60
2022-08-19T10:18:18.847Z,6.17
2022-08-19T10:20:51.437Z,6.33
2022-08-19T10:23:20.838Z,6.17
2022-08-19T10:25:54.642Z,7.03
2022-08-19T10:28:24.034Z,6.13
2022-08-19T10:31:08.949Z,6.40
2022-08-19T10:33:53.250Z,6.70
2022-08-19T10:36:23.509Z,6.50
2022-08-19T10:38:56.635Z,6.67
2022-08-19T10:41:26.070Z,5.47
2022-08-19T10:43:55.354Z,6.03
2022-08-19T10:46:28.648Z,6.17
2022-08-19T10:48:56.779Z,5.73
2022-08-19T10:51:48.036Z,8.17
2022-08-19T10:54:17.032Z,8.20
2022-08-19T10:56:58.575Z,5.90
2022-08-19T10:59:31.456Z,6.10
2022-08-19T11:02:03.890Z,6.20
2022-08-19T11:04:33.000Z,5.80
2022-08-19T11:07:01.142Z,5.67
2022-08-19T11:09:34.036Z,6.10
2022-08-19T11:12:03.005Z,5.70
2022-08-19T11:14:34.268Z,6.20
2022-08-19T11:17:04.357Z,6.47
2022-08-19T11:19:32.505Z,6.30
2022-08-19T11:22:09.469Z,6.27
2022-08-19T11:24:38.550Z,6.30
2022-08-19T11:27:07.609Z,6.20
2022-08-19T11:29:35.895Z,7.33
2022-08-19T11:32:07.473Z,5.90
2022-08-19T11:34:36.396Z,6.73
2022-08-19T11:37:05.383Z,6.20
2022-08-19T11:39:53.536Z,6.17
2022-08-19T11:42:39.365Z,6.27
2022-08-19T11:45:08.926Z,6.30
2022-08-19T11:47:39.756Z,6.70
2022-08-19T11:50:08.192Z,6.00
2022-08-19T11:52:36.298Z,6.90
2022-08-19T11:55:04.482Z,6.03
2022-08-19T11:57:32.584Z,6.37
2022-08-19T12:00:00.656Z,6.33
2022-08-19T12:02:28.743Z,6.27
2022-08-19T12:04:58.537Z,6.90
2022-08-19T12:07:26.856Z,6.20
2022-08-19T12:09:55.089Z,6.47
2022-08-19T12:12:24.508Z,7.23
2022-08-19T12:14:57.518Z,5.70
2022-08-19T12:17:26.143Z,9.73
2022-08-19T12:19:54.262Z,6.43
2022-08-19T12:22:23.750Z,6.87
2022-08-19T12:24:54.248Z,6.17
2022-08-19T12:27:39.849Z,6.70
2022-08-19T12:30:11.925Z,6.40
2022-08-19T12:32:40.021Z,6.80
2022-08-19T12:35:10.190Z,6.70
2022-08-19T12:37:45.384Z,6.87
2022-08-19T12:40:26.320Z,6.97
2022-08-19T12:42:54.768Z,7.00
2022-08-19T12:45:23.486Z,6.40
2022-08-19T12:47:54.854Z,7.00
2022-08-19T12:50:23.417Z,6.53
2022-08-19T12:52:52.970Z,6.50
2022-08-19T12:55:21.391Z,7.20
2022-08-19T12:57:49.976Z,6.70
2022-08-19T13:00:19.497Z,7.40
2022-08-19T13:02:48.304Z,7.90
2022-08-19T13:05:17.673Z,7.70
2022-08-19T13:07:45.910Z,6.90
2022-08-19T13:10:17.449Z,7.37
2022-08-19T13:12:45.668Z,7.10
2022-08-19T13:15:16.903Z,7.43
2022-08-19T13:17:46.489Z,7.50
2022-08-19T13:20:23.446Z,8.00
2022-08-19T13:22:51.611Z,7.33
2022-08-19T13:25:21.933Z,7.30
2022-08-19T13:27:50.277Z,7.47
2022-08-19T13:30:36.483Z,7.50
2022-08-19T13:33:15.960Z,8.07
2022-08-19T13:35:48.046Z,8.37
2022-08-19T13:38:24.268Z,8.60
2022-08-19T13:40:54.552Z,7.67
2022-08-19T13:43:24.091Z,10.60
2022-08-19T13:45:57.414Z,7.60
2022-08-19T13:48:26.297Z,10.43
2022-08-19T13:50:55.154Z,10.73
2022-08-19T13:53:23.298Z,8.43
2022-08-19T13:55:52.134Z,8.93
2022-08-19T13:58:24.682Z,8.47
2022-08-19T14:00:53.965Z,9.50
2022-08-19T14:03:22.086Z,8.23
2022-08-19T14:05:50.201Z,8.63
2022-08-19T14:08:18.347Z,7.53
2022-08-19T14:10:46.528Z,8.50
2022-08-19T14:13:16.687Z,8.80
2022-08-19T14:15:49.369Z,9.50
2022-08-19T14:18:20.224Z,9.50
2022-08-19T14:20:48.436Z,8.20
2022-08-19T14:23:16.532Z,9.13
2022-08-19T14:25:44.674Z,8.40
2022-08-19T14:28:12.768Z,9.10
2022-08-19T14:30:40.912Z,8.90
2022-08-19T14:33:10.492Z,9.73
2022-08-19T14:35:38.640Z,10.07
2022-08-19T14:38:07.063Z,9.43
2022-08-19T14:40:35.730Z,9.97
2022-08-19T14:43:05.271Z,9.00
2022-08-19T14:45:33.965Z,9.17
2022-08-19T14:48:02.145Z,8.87
2022-08-19T14:50:31.680Z,9.93
2022-08-19T14:53:00.600Z,8.43
2022-08-19T14:55:28.853Z,10.50
2022-08-19T14:57:57.009Z,9.07
2022-08-19T15:00:26.260Z,9.60
2022-08-19T15:02:55.654Z,9.03
2022-08-19T15:05:23.870Z,9.77
2022-08-19T15:07:55.764Z,9.53
2022-08-19T15:10:24.692Z,8.77
2022-08-19T15:12:54.269Z,9.27
2022-08-19T15:15:23.700Z,9.23
2022-08-19T15:17:51.823Z,9.47
2022-08-19T15:20:21.383Z,8.80
2022-08-19T15:22:49.470Z,9.50
2022-08-19T15:25:20.577Z,9.50
2022-08-19T15:27:48.808Z,9.03
2022-08-19T15:30:24.215Z,9.30
2022-08-19T15:32:53.519Z,9.20
2022-08-19T15:35:22.134Z,8.67
2022-08-19T15:37:50.825Z,9.40
2022-08-19T15:40:20.595Z,8.27
2022-08-19T15:42:49.974Z,9.23
2022-08-19T15:45:18.928Z,9.30
2022-08-19T15:47:47.566Z,8.93
2022-08-19T15:50:16.673Z,8.63
2022-08-19T15:52:49.948Z,8.47
2022-08-19T15:55:32.414Z,8.60
2022-08-19T15:58:20.614Z,8.77
2022-08-19T16:01:13.865Z,9.47
2022-08-19T16:04:00.099Z,9.30
2022-08-19T16:06:28.165Z,8.50
2022-08-19T16:08:56.429Z,9.00
2022-08-19T16:11:29.444Z,8.57
2022-08-19T16:13:58.044Z,9.10
2022-08-19T16:16:33.751Z,8.90
2022-08-19T16:19:03.707Z,8.67
2022-08-19T16:21:41.876Z,8.27
2022-08-19T16:24:12.145Z,7.90
2022-08-19T16:26:41.867Z,8.70
2022-08-19T16:29:12.108Z,8.37
2022-08-19T16:31:41.865Z,7.63
2022-08-19T16:34:10.031Z,8.30
2022-08-19T16:36:42.237Z,8.20
2022-08-19T16:39:10.725Z,9.20
2022-08-19T16:41:38.959Z,8.10
2022-08-19T16:44:09.759Z,8.63
2022-08-19T16:46:41.616Z,8.60
2022-08-19T16:49:10.683Z,7.60
2022-08-19T16:51:38.884Z,8.60
2022-08-19T16:54:07.234Z,8.87
2022-08-19T16:56:35.400Z,8.47
2022-08-19T16:59:03.531Z,8.13
2022-08-19T17:01:41.288Z,8.33
2022-08-19T17:04:10.404Z,8.03
2022-08-19T17:06:39.648Z,8.67
2022-08-19T17:09:08.216Z,8.70
2022-08-19T17:11:39.477Z,8.17
2022-08-19T17:14:10.575Z,9.00
2022-08-19T17:16:40.384Z,7.63
2022-08-19T17:19:08.807Z,8.30
2022-08-19T17:21:37.659Z,8.37
2022-08-19T17:24:07.377Z,8.10
2022-08-19T17:26:35.848Z,8.10
2022-08-19T17:29:04.254Z,8.27
2022-08-19T17:31:35.245Z,7.83
2022-08-19T17:34:04.800Z,7.70
2022-08-19T17:36:34.032Z,8.30
2022-08-19T17:39:02.750Z,7.40
2022-08-19T17:41:32.142Z,8.37
2022-08-19T17:44:00.233Z,8.07
2022-08-19T17:46:30.136Z,8.40
2022-08-19T17:48:58.613Z,7.93
2022-08-19T17:51:42.176Z,7.57
2022-08-19T17:54:12.022Z,7.60
2022-08-19T17:56:40.533Z,8.00
2022-08-19T17:59:09.162Z,8.17
2022-08-19T18:01:53.949Z,8.30
2022-08-19T18:04:24.082Z,8.37
2022-08-19T18:06:54.926Z,7.93
2022-08-19T18:09:26.739Z,7.83
2022-08-19T18:11:56.813Z,7.97
2022-08-19T18:14:33.036Z,7.93
2022-08-19T18:17:03.078Z,8.17
2022-08-19T18:19:42.208Z,7.57
2022-08-19T18:22:13.331Z,7.80
2022-08-19T18:24:41.762Z,8.13
2022-08-19T18:27:10.188Z,9.03
2022-08-19T18:29:40.183Z,8.13
2022-08-19T18:32:12.742Z,9.23
2022-08-19T18:34:41.144Z,7.40
2022-08-19T18:37:13.946Z,8.10
2022-08-19T18:39:59.742Z,8.33
2022-08-19T18:42:48.021Z,8.43
2022-08-19T18:45:33.359Z,9.13
2022-08-19T18:48:26.422Z,7.73
2022-08-19T18:50:57.424Z,7.30
2022-08-19T18:53:27.751Z,8.37
2022-08-19T18:55:56.079Z,7.97
2022-08-19T18:58:41.318Z,8.20
2022-08-19T19:01:11.634Z,8.50
2022-08-19T19:03:41.371Z,7.57
2022-08-19T19:06:09.529Z,8.27
2022-08-19T19:08:40.922Z,8.07
2022-08-19T19:11:09.077Z,8.33
2022-08-19T19:13:37.492Z,8.13
2022-08-19T19:16:06.074Z,8.40
2022-08-19T19:18:34.578Z,7.40
2022-08-19T19:21:02.719Z,8.60
2022-08-19T19:23:30.945Z,7.70
2022-08-19T19:26:01.008Z,7.73
2022-08-19T19:28:29.396Z,7.70
2022-08-19T19:30:58.802Z,8.23
2022-08-19T19:33:27.018Z,7.90
2022-08-19T19:35:55.191Z,8.47
2022-08-19T19:38:23.281Z,7.43
2022-08-19T19:40:51.405Z,7.80
2022-08-19T19:43:21.312Z,8.30
2022-08-19T19:45:49.802Z,7.83
2022-08-19T19:48:17.900Z,8.63
2022-08-19T19:50:46.203Z,8.20
2022-08-19T19:53:22.280Z,8.60
2022-08-19T19:55:51.646Z,7.57
2022-08-19T19:58:28.461Z,7.60
2022-08-19T20:00:57.738Z,8.00
2022-08-19T20:03:25.965Z,7.97
2022-08-19T20:06:00.295Z,7.90
2022-08-19T20:08:46.394Z,8.30
2022-08-19T20:11:17.834Z,8.90
2022-08-19T20:13:47.341Z,8.43
2022-08-19T20:16:15.422Z,8.97
2022-08-19T20:18:43.809Z,9.93
2022-08-19T20:21:14.775Z,8.77
2022-08-19T20:23:42.888Z,9.53
2022-08-19T20:26:32.343Z,11.17
2022-08-19T20:29:11.272Z,8.30
2022-08-19T20:31:59.132Z,8.50
2022-08-19T20:34:28.028Z,9.30
2022-08-19T20:36:56.114Z,8.13
2022-08-19T20:39:24.244Z,8.90
2022-08-19T20:41:52.348Z,8.20
2022-08-19T20:44:21.836Z,7.20
2022-08-19T20:46:55.622Z,7.57
2022-08-19T20:49:27.136Z,7.50
2022-08-19T20:51:55.792Z,7.90
2022-08-19T20:54:27.030Z,8.30
2022-08-19T20:57:11.114Z,7.73
2022-08-19T20:59:40.582Z,7.60
2022-08-19T21:02:08.683Z,7.50
2022-08-19T21:04:36.784Z,7.63
2022-08-19T21:07:04.980Z,7.30
2022-08-19T21:09:33.088Z,9.13
2022-08-19T21:12:01.602Z,7.80
2022-08-19T21:14:44.826Z,7.73
2022-08-19T21:17:22.451Z,6.97
2022-08-19T21:19:50.579Z,6.80
2022-08-19T21:22:19.217Z,7.00
2022-08-19T21:24:47.342Z,7.13
2022-08-19T21:27:15.441Z,6.73
2022-08-19T21:29:43.552Z,7.80
2022-08-19T21:32:14.080Z,6.97
2022-08-19T21:34:51.277Z,7.23
2022-08-19T21:37:25.622Z,7.10
2022-08-19T21:39:54.403Z,7.47
2022-08-19T21:42:23.015Z,7.23
2022-08-19T21:44:51.290Z,6.63
2022-08-19T21:47:19.513Z,7.67
2022-08-19T21:49:48.993Z,7.43
2022-08-19T21:52:22.636Z,8.17
2022-08-19T21:54:53.241Z,8.37
2022-08-19T21:57:21.365Z,7.63
2022-08-19T21:59:49.481Z,7.90
2022-08-19T22:02:21.715Z,7.93
2022-08-19T22:04:53.906Z,6.90
2022-08-19T22:07:25.493Z,7.47
2022-08-19T22:09:54.119Z,7.47
2022-08-19T22:12:24.513Z,7.50
2022-08-19T22:14:52.911Z,7.60
2022-08-19T22:17:21.051Z,7.77
2022-08-19T22:19:49.244Z,7.20
2022-08-19T22:22:24.214Z,7.27
2022-08-19T22:24:52.344Z,7.30
2022-08-19T22:27:20.625Z,7.23
2022-08-19T22:29:52.649Z,7.93
2022-08-19T22:32:27.973Z,7.47
2022-08-19T22:34:58.117Z,7.77
2022-08-19T22:37:27.651Z,6.60
2022-08-19T22:39:55.895Z,6.77
2022-08-19T22:42:24.834Z,7.13
2022-08-19T22:44:58.777Z,8.40
2022-08-19T22:47:27.164Z,6.77
2022-08-19T22:49:58.295Z,7.23
2022-08-19T22:52:26.768Z,6.97
2022-08-19T22:54:56.879Z,6.63
2022-08-19T22:57:24.979Z,7.33
2022-08-19T22:59:53.874Z,6.70
2022-08-19T23:02:23.397Z,7.17
2022-08-19T23:04:51.544Z,7.63
2022-08-19T23:07:19.630Z,7.40
2022-08-19T23:09:53.405Z,7.90
2022-08-19T23:12:27.632Z,7.43
2022-08-19T23:14:55.744Z,7.43
2022-08-19T23:17:23.833Z,7.10
2022-08-19T23:19:51.943Z,7.10
2022-08-19T23:22:20.126Z,6.37
2022-08-19T23:24:56.187Z,6.90
2022-08-19T23:27:42.098Z,7.33
2022-08-19T23:30:27.058Z,7.20
2022-08-19T23:32:55.326Z,7.03
2022-08-19T23:35:23.603Z,6.30
2022-08-19T23:37:52.261Z,6.90
2022-08-19T23:40:22.678Z,9.30
2022-08-19T23:42:50.883Z,7.27
2022-08-19T23:45:23.925Z,7.13
2022-08-19T23:47:53.586Z,8.93
2022-08-19T23:50:22.013Z,7.60
2022-08-19T23:52:51.407Z,8.13
2022-08-19T23:55:21.808Z,6.90
2022-08-19T23:57:49.871Z,7.40
